Time;durP1;ratioP1;P1;durP2;ratioP2;P2;SDS_P1;SDS_P2;PMS_P1;PMS_P2;Temp;Humidity;BMP_temperature;BMP_pressure;BME280_temperature;BME280_humidity;BME280_pressure;Samples;Min_cycle;Max_cycle;Signal;HPM_P1;HPM_P2
2022/03/06 00:00:46;;;;;;;14.73;11.37;;;2.10;99.40;;;;;;5053679;28;20245;-68
2022/03/06 00:03:12;;;;;;;16.50;11.70;;;2.10;99.40;;;;;;5053613;28;20195;-68
2022/03/06 00:05:37;;;;;;;14.73;11.60;;;2.20;99.40;;;;;;5053656;28;20801;-68
2022/03/06 00:08:03;;;;;;;16.47;12.30;;;2.20;99.70;;;;;;5053937;28;20224;-68
2022/03/06 00:10:30;;;;;;;13.90;11.10;;;2.30;99.60;;;;;;5053875;28;20690;-68
2022/03/06 00:12:56;;;;;;;14.27;11.20;;;2.30;99.60;;;;;;5053476;28;20496;-68
2022/03/06 00:15:23;;;;;;;16.93;11.50;;;2.30;99.60;;;;;;5053320;28;20463;-68
2022/03/06 00:17:49;;;;;;;16.53;11.90;;;2.30;99.70;;;;;;5053668;28;20437;-68
2022/03/06 00:20:15;;;;;;;17.30;13.03;;;2.30;99.70;;;;;;5053436;28;20409;-68
2022/03/06 00:22:41;;;;;;;15.33;12.10;;;2.30;99.70;;;;;;5052038;28;20436;-68
2022/03/06 00:25:07;;;;;;;16.47;11.37;;;2.30;99.60;;;;;;5051657;28;20491;-68
2022/03/06 00:27:33;;;;;;;18.23;12.10;;;2.30;99.80;;;;;;5053365;28;20193;-68
2022/03/06 00:29:59;;;;;;;16.33;11.13;;;2.20;99.90;;;;;;5053049;28;20416;-69
2022/03/06 00:32:25;;;;;;;14.83;11.83;;;2.20;99.90;;;;;;5051984;28;20421;-68
2022/03/06 00:34:50;;;;;;;15.97;11.97;;;2.10;99.90;;;;;;5053342;28;20443;-68
2022/03/06 00:37:17;;;;;;;15.43;11.80;;;2.10;99.90;;;;;;5053795;28;20408;-68
2022/03/06 00:39:43;;;;;;;17.33;11.27;;;2.00;99.90;;;;;;5053111;28;20193;-68
2022/03/06 00:42:09;;;;;;;15.10;11.50;;;2.00;99.90;;;;;;5053190;28;20478;-68
2022/03/06 00:44:35;;;;;;;17.13;11.63;;;2.00;99.90;;;;;;5050943;28;20439;-67
2022/03/06 00:47:01;;;;;;;16.07;12.10;;;1.90;99.90;;;;;;5053473;28;20412;-67
2022/03/06 00:49:27;;;;;;;15.03;11.80;;;1.90;99.90;;;;;;5052692;28;20435;-67
2022/03/06 00:51:53;;;;;;;15.70;11.53;;;1.90;99.90;;;;;;5053410;28;20776;-68
2022/03/06 00:54:19;;;;;;;17.10;12.37;;;1.80;99.90;;;;;;5053097;28;20650;-68
2022/03/06 00:56:46;;;;;;;18.00;11.70;;;1.80;99.90;;;;;;5053369;28;20414;-68
2022/03/06 00:59:12;;;;;;;15.13;11.63;;;1.70;99.90;;;;;;5052746;28;21069;-67
2022/03/06 01:01:37;;;;;;;16.20;11.33;;;1.60;99.90;;;;;;5053236;28;20416;-67
2022/03/06 01:04:04;;;;;;;16.20;11.57;;;1.60;99.90;;;;;;5051755;28;20419;-67
2022/03/06 01:06:29;;;;;;;15.07;11.93;;;1.60;99.90;;;;;;5053076;28;20633;-67
2022/03/06 01:08:55;;;;;;;15.00;11.10;;;1.70;99.90;;;;;;5053243;28;20424;-67
2022/03/06 01:11:21;;;;;;;14.30;11.43;;;1.70;99.90;;;;;;5053525;28;20633;-67
2022/03/06 01:13:47;;;;;;;17.53;12.20;;;1.60;99.90;;;;;;5053496;28;20413;-67
2022/03/06 01:16:13;;;;;;;15.63;11.97;;;1.60;99.90;;;;;;5052963;28;20260;-67
2022/03/06 01:18:38;;;;;;;14.97;11.50;;;1.50;99.90;;;;;;5053544;28;20943;-68
2022/03/06 01:21:04;;;;;;;18.10;12.60;;;1.50;99.90;;;;;;5054100;28;20764;-68
2022/03/06 01:23:30;;;;;;;14.73;11.17;;;1.50;99.90;;;;;;5053425;28;20189;-69
2022/03/06 01:25:56;;;;;;;17.63;12.33;;;1.40;99.90;;;;;;5053834;28;20253;-68
2022/03/06 01:28:21;;;;;;;15.80;11.53;;;1.30;99.90;;;;;;5053980;28;20446;-68
2022/03/06 01:30:47;;;;;;;17.50;10.90;;;1.30;99.90;;;;;;5053526;28;20171;-68
2022/03/06 01:33:13;;;;;;;15.23;11.50;;;1.40;99.90;;;;;;5053398;28;20170;-68
2022/03/06 01:35:38;;;;;;;16.63;12.00;;;1.40;99.90;;;;;;5053345;28;20246;-68
2022/03/06 01:38:04;;;;;;;16.77;12.30;;;1.50;99.90;;;;;;5052908;28;20347;-68
2022/03/06 01:40:30;;;;;;;16.17;13.07;;;1.50;99.90;;;;;;5053135;28;20170;-68
2022/03/06 01:42:55;;;;;;;14.43;11.87;;;1.40;99.90;;;;;;5051787;28;20205;-68
2022/03/06 01:45:23;;;;;;;17.53;13.10;;;1.40;99.90;;;;;;5052120;28;20662;-68
2022/03/06 01:47:51;;;;;;;15.80;11.30;;;1.30;99.90;;;;;;5052780;28;20223;-69
2022/03/06 01:50:19;;;;;;;15.20;10.70;;;1.30;99.90;;;;;;5052910;28;20474;-68
2022/03/06 01:52:47;;;;;;;18.23;12.87;;;1.30;99.90;;;;;;5051976;28;20521;-68
2022/03/06 01:55:14;;;;;;;16.13;12.00;;;1.30;99.90;;;;;;5052830;28;20412;-68
2022/03/06 01:57:41;;;;;;;17.43;12.73;;;1.30;99.90;;;;;;5051285;28;20415;-68
2022/03/06 02:00:12;;;;;;;18.30;12.70;;;1.10;99.90;;;;;;5052717;28;20450;-68
2022/03/06 02:02:38;;;;;;;15.37;11.30;;;1.10;99.90;;;;;;5053548;28;20477;-68
2022/03/06 02:05:04;;;;;;;17.70;12.77;;;1.20;99.90;;;;;;5054753;28;20903;-68
2022/03/06 02:07:29;;;;;;;18.20;13.07;;;1.20;99.90;;;;;;5056165;28;20448;-68
2022/03/06 02:09:57;;;;;;;15.90;11.97;;;1.20;99.90;;;;;;5056353;28;20475;-68
2022/03/06 02:12:23;;;;;;;20.10;11.90;;;1.20;99.90;;;;;;5056288;28;20684;-68
2022/03/06 02:14:53;;;;;;;14.77;11.57;;;1.20;99.90;;;;;;5055739;28;20418;-68
2022/03/06 02:17:20;;;;;;;14.60;11.20;;;1.20;99.90;;;;;;5055874;28;20795;-68
2022/03/06 02:19:52;;;;;;;15.47;11.60;;;1.20;99.90;;;;;;5055932;28;20424;-68
2022/03/06 02:22:21;;;;;;;14.10;11.67;;;1.10;99.90;;;;;;5055546;28;20967;-68
2022/03/06 02:24:47;;;;;;;17.93;12.93;;;1.10;99.90;;;;;;5055917;28;20412;-68
2022/03/06 02:27:13;;;;;;;17.27;12.87;;;1.10;99.90;;;;;;5055629;28;20898;-68
2022/03/06 02:29:42;;;;;;;18.67;13.10;;;1.10;99.90;;;;;;5055229;28;20429;-68
2022/03/06 02:32:13;;;;;;;17.17;12.77;;;1.10;99.90;;;;;;5055848;28;20169;-68
2022/03/06 02:34:41;;;;;;;21.17;13.93;;;1.00;99.90;;;;;;5052201;28;20414;-68
2022/03/06 02:37:07;;;;;;;17.93;12.23;;;1.00;99.90;;;;;;5055530;28;20420;-68
2022/03/06 02:39:33;;;;;;;18.73;13.40;;;1.00;99.90;;;;;;5055495;28;20439;-68
2022/03/06 02:41:58;;;;;;;16.23;12.80;;;0.90;99.90;;;;;;5055331;28;20459;-68
2022/03/06 02:44:25;;;;;;;15.37;11.87;;;0.90;99.90;;;;;;5054746;28;20646;-68
2022/03/06 02:46:51;;;;;;;19.27;13.20;;;0.90;99.90;;;;;;5055688;28;20236;-68
2022/03/06 02:49:20;;;;;;;20.97;13.13;;;0.80;99.90;;;;;;5055537;28;20438;-67
2022/03/06 02:51:45;;;;;;;19.07;12.50;;;0.80;99.90;;;;;;5055298;28;20407;-68
2022/03/06 02:54:12;;;;;;;14.50;11.30;;;0.80;99.90;;;;;;5055162;28;20461;-67
2022/03/06 02:56:38;;;;;;;16.97;12.07;;;0.70;99.90;;;;;;5055166;28;20196;-68
2022/03/06 02:59:04;;;;;;;20.03;13.17;;;0.70;99.90;;;;;;5055444;28;20450;-67
2022/03/06 03:01:30;;;;;;;18.53;12.23;;;0.70;99.90;;;;;;5054909;28;20165;-67
2022/03/06 03:03:56;;;;;;;16.90;12.17;;;0.70;99.90;;;;;;5054976;28;20554;-67
2022/03/06 03:06:22;;;;;;;16.10;12.20;;;0.70;99.90;;;;;;5055211;28;20402;-68
2022/03/06 03:08:48;;;;;;;18.03;12.80;;;0.70;99.90;;;;;;5054840;28;20438;-68
2022/03/06 03:11:14;;;;;;;15.73;11.60;;;0.80;99.90;;;;;;5054785;28;20169;-68
2022/03/06 03:13:40;;;;;;;18.70;12.57;;;0.80;99.90;;;;;;5054942;28;20432;-68
2022/03/06 03:16:07;;;;;;;20.73;15.33;;;0.90;99.90;;;;;;5053382;28;20546;-68
2022/03/06 03:18:33;;;;;;;17.00;11.80;;;0.80;99.90;;;;;;5054970;28;20950;-68
2022/03/06 03:20:59;;;;;;;16.93;12.33;;;0.70;99.90;;;;;;5054580;28;20419;-68
2022/03/06 03:23:24;;;;;;;16.60;13.57;;;0.70;99.90;;;;;;5054586;28;20671;-68
2022/03/06 03:25:50;;;;;;;17.33;13.27;;;0.70;99.90;;;;;;5054483;28;20440;-68
2022/03/06 03:28:16;;;;;;;19.70;13.70;;;0.70;99.90;;;;;;5054802;28;20187;-68
2022/03/06 03:30:41;;;;;;;17.30;12.40;;;0.70;99.90;;;;;;5054631;28;20174;-68
2022/03/06 03:33:07;;;;;;;18.97;13.20;;;0.70;99.90;;;;;;5054816;28;20191;-68
2022/03/06 03:35:33;;;;;;;18.83;13.30;;;0.70;99.90;;;;;;5054481;28;20183;-68
2022/03/06 03:37:58;;;;;;;19.33;12.13;;;0.60;99.90;;;;;;5054324;28;20192;-68
2022/03/06 03:40:24;;;;;;;15.63;12.23;;;0.50;99.90;;;;;;5053456;28;20439;-68
2022/03/06 03:42:50;;;;;;;17.87;12.73;;;0.50;99.90;;;;;;5054422;28;20196;-68
2022/03/06 03:45:15;;;;;;;19.07;13.50;;;0.50;99.90;;;;;;5053355;28;20590;-68
2022/03/06 03:47:41;;;;;;;16.73;11.97;;;0.50;99.90;;;;;;5054359;28;20172;-68
2022/03/06 03:50:07;;;;;;;19.27;13.33;;;0.50;99.90;;;;;;5054136;28;20176;-67
2022/03/06 03:52:33;;;;;;;18.00;12.70;;;0.40;99.90;;;;;;5054039;28;20178;-68
2022/03/06 03:54:59;;;;;;;19.40;12.83;;;0.40;99.90;;;;;;5053936;28;20426;-68
2022/03/06 03:57:25;;;;;;;18.90;14.27;;;0.40;99.90;;;;;;5053899;28;20442;-69
2022/03/06 03:59:51;;;;;;;17.17;12.40;;;0.30;99.90;;;;;;5053474;28;20239;-68
2022/03/06 04:02:17;;;;;;;21.40;15.33;;;0.40;99.90;;;;;;5053725;28;20205;-68
2022/03/06 04:04:42;;;;;;;19.60;12.97;;;0.40;99.90;;;;;;5053803;28;20400;-68
2022/03/06 04:07:08;;;;;;;21.70;14.43;;;0.40;99.90;;;;;;5053796;28;20412;-68
2022/03/06 04:09:34;;;;;;;17.73;13.00;;;0.40;99.90;;;;;;5053671;28;20598;-68
2022/03/06 04:11:59;;;;;;;19.70;14.37;;;0.50;99.90;;;;;;5053923;28;20234;-68
2022/03/06 04:14:25;;;;;;;17.30;13.50;;;0.50;99.90;;;;;;5053625;28;20187;-69
2022/03/06 04:16:51;;;;;;;18.60;13.47;;;0.50;99.90;;;;;;5053886;28;20179;-68
2022/03/06 04:19:16;;;;;;;19.30;13.63;;;0.40;99.90;;;;;;5053635;28;20188;-68
2022/03/06 04:21:42;;;;;;;18.77;11.50;;;0.40;99.90;;;;;;5053608;28;20784;-68
2022/03/06 04:24:07;;;;;;;20.97;13.10;;;0.40;99.90;;;;;;5053868;28;20621;-68
2022/03/06 04:26:34;;;;;;;18.90;12.63;;;0.40;99.90;;;;;;5053334;28;20180;-68
2022/03/06 04:29:00;;;;;;;17.20;11.93;;;0.40;99.90;;;;;;5053628;28;20192;-68
2022/03/06 04:31:25;;;;;;;18.47;12.50;;;0.50;99.90;;;;;;5050168;28;20782;-68
2022/03/06 04:33:51;;;;;;;19.40;13.80;;;0.40;99.90;;;;;;5053724;28;20167;-68
2022/03/06 04:36:17;;;;;;;19.93;14.30;;;0.40;99.90;;;;;;5053982;28;20172;-68
2022/03/06 04:38:42;;;;;;;17.87;13.00;;;0.40;99.90;;;;;;5053460;28;20283;-68
2022/03/06 04:41:10;;;;;;;19.17;12.63;;;0.40;99.90;;;;;;5053406;28;20297;-67
2022/03/06 04:43:37;;;;;;;16.67;13.43;;;0.40;99.90;;;;;;5052474;28;20480;-67
2022/03/06 04:46:02;;;;;;;18.20;12.97;;;0.40;99.90;;;;;;5052662;28;20921;-67
2022/03/06 04:48:28;;;;;;;15.37;12.27;;;0.30;99.90;;;;;;5053474;28;20445;-68
2022/03/06 04:50:54;;;;;;;18.27;12.50;;;0.30;99.90;;;;;;5053190;28;20199;-68
2022/03/06 04:53:19;;;;;;;20.87;14.13;;;0.20;99.90;;;;;;5053141;28;20218;-67
2022/03/06 04:55:45;;;;;;;23.30;14.43;;;0.20;99.90;;;;;;5053228;28;20179;-69
2022/03/06 04:58:10;;;;;;;19.30;13.00;;;0.20;99.90;;;;;;5053382;28;20282;-68
2022/03/06 05:00:36;;;;;;;21.60;14.30;;;0.20;99.90;;;;;;5052942;28;20660;-67
2022/03/06 05:03:02;;;;;;;21.87;14.80;;;0.20;99.90;;;;;;5053235;28;20553;-68
2022/03/06 05:05:28;;;;;;;22.20;15.23;;;0.10;99.90;;;;;;5054279;28;20171;-68
2022/03/06 05:07:54;;;;;;;20.33;14.20;;;0.20;99.90;;;;;;5053100;28;20785;-68
2022/03/06 05:10:19;;;;;;;20.50;14.87;;;0.10;99.90;;;;;;5052996;28;20168;-68
2022/03/06 05:12:45;;;;;;;18.97;14.33;;;0.10;99.90;;;;;;5052825;28;20630;-72
2022/03/06 05:15:12;;;;;;;22.40;14.57;;;0.10;99.90;;;;;;5052632;28;20183;-68
2022/03/06 05:17:39;;;;;;;18.23;13.40;;;0.10;99.90;;;;;;5052822;28;20904;-69
2022/03/06 05:20:06;;;;;;;19.60;13.63;;;0.10;99.90;;;;;;5052763;28;20783;-67
2022/03/06 05:22:31;;;;;;;19.23;14.47;;;0.00;99.90;;;;;;5052870;28;20819;-67
2022/03/06 05:25:00;;;;;;;20.00;14.87;;;0.00;99.90;;;;;;5053055;28;20489;-67
2022/03/06 05:27:27;;;;;;;23.03;14.27;;;0.10;99.90;;;;;;5052774;28;20173;-68
2022/03/06 05:29:52;;;;;;;21.53;13.83;;;0.10;99.90;;;;;;5052383;28;20840;-67
2022/03/06 05:32:18;;;;;;;20.60;14.57;;;0.10;99.90;;;;;;5052551;28;20412;-68
2022/03/06 05:34:44;;;;;;;22.50;15.50;;;0.10;99.90;;;;;;5052947;28;20179;-68
2022/03/06 05:37:09;;;;;;;21.20;15.60;;;0.10;99.90;;;;;;5054227;28;20227;-68
2022/03/06 05:39:35;;;;;;;20.97;14.20;;;0.20;99.90;;;;;;5056450;28;20196;-68
2022/03/06 05:42:02;;;;;;;25.60;16.67;;;0.30;99.90;;;;;;5056502;28;20195;-68
2022/03/06 05:44:28;;;;;;;25.17;15.73;;;0.30;99.90;;;;;;5055678;28;20472;-68
2022/03/06 05:46:53;;;;;;;23.17;16.10;;;0.40;99.90;;;;;;5056727;28;20892;-68
2022/03/06 05:49:19;;;;;;;21.80;15.37;;;0.60;99.90;;;;;;5056586;28;20423;-68
2022/03/06 05:51:45;;;;;;;22.07;15.17;;;0.60;99.90;;;;;;5056489;28;20179;-68
2022/03/06 05:54:11;;;;;;;20.77;14.50;;;0.70;99.90;;;;;;5056494;28;20302;-67
2022/03/06 05:56:36;;;;;;;20.50;14.13;;;0.60;99.90;;;;;;5056136;28;20503;-68
2022/03/06 05:59:03;;;;;;;19.47;14.60;;;0.60;99.90;;;;;;5055692;28;20210;-68
2022/03/06 06:01:29;;;;;;;21.67;15.70;;;0.70;99.90;;;;;;5054677;28;20191;-68
2022/03/06 06:03:56;;;;;;;21.27;15.27;;;0.70;99.90;;;;;;5046937;28;20464;-68
2022/03/06 06:06:26;;;;;;;20.60;16.20;;;0.70;99.90;;;;;;5046822;28;20512;-69
2022/03/06 06:08:53;;;;;;;18.30;13.67;;;0.80;99.90;;;;;;5046378;28;20483;-68
2022/03/06 06:11:19;;;;;;;22.17;15.00;;;0.90;99.90;;;;;;5046581;28;20819;-68
2022/03/06 06:13:45;;;;;;;23.10;16.00;;;0.90;99.90;;;;;;5046734;28;20434;-69
2022/03/06 06:16:11;;;;;;;18.03;12.87;;;0.80;99.90;;;;;;5045110;28;21331;-67
2022/03/06 06:18:36;;;;;;;21.00;14.00;;;0.80;99.90;;;;;;5046168;28;20538;-68
2022/03/06 06:21:03;;;;;;;22.50;15.00;;;0.80;99.90;;;;;;5046653;28;20181;-67
2022/03/06 06:23:28;;;;;;;22.00;15.37;;;0.70;99.90;;;;;;5046257;28;20270;-67
2022/03/06 06:25:54;;;;;;;20.57;14.20;;;0.60;99.90;;;;;;5046175;28;20473;-67
2022/03/06 06:28:19;;;;;;;20.17;14.57;;;0.70;99.90;;;;;;5054610;28;20686;-67
2022/03/06 06:30:45;;;;;;;21.93;15.53;;;0.70;99.90;;;;;;5055461;28;20168;-67
2022/03/06 06:33:11;;;;;;;19.77;13.83;;;0.80;99.90;;;;;;5054748;28;20181;-67
2022/03/06 06:35:37;;;;;;;21.33;13.93;;;0.80;99.90;;;;;;5053565;28;20343;-67
2022/03/06 06:38:03;;;;;;;18.83;13.87;;;0.80;99.90;;;;;;5054133;28;20204;-68
2022/03/06 06:40:30;;;;;;;18.40;14.30;;;0.70;99.90;;;;;;5055329;28;20175;-68
2022/03/06 06:42:55;;;;;;;17.93;13.03;;;0.70;99.90;;;;;;5054137;28;20454;-67
2022/03/06 06:45:21;;;;;;;18.17;13.80;;;0.80;99.90;;;;;;5054141;28;20843;-69
2022/03/06 06:47:47;;;;;;;18.73;14.10;;;0.80;99.90;;;;;;5054995;28;20172;-69
2022/03/06 06:50:13;;;;;;;19.70;15.10;;;0.70;99.90;;;;;;5051239;28;20423;-69
2022/03/06 06:52:39;;;;;;;21.33;15.20;;;0.70;99.90;;;;;;5046148;28;20268;-67
2022/03/06 06:55:05;;;;;;;19.30;14.10;;;0.80;99.90;;;;;;5050598;28;20439;-68
2022/03/06 06:57:32;;;;;;;20.30;15.20;;;0.80;99.90;;;;;;5044369;28;20279;-68
2022/03/06 06:59:59;;;;;;;23.53;16.27;;;0.80;99.90;;;;;;5043648;28;20431;-68
2022/03/06 07:02:24;;;;;;;19.90;15.23;;;0.90;99.90;;;;;;5054879;28;20451;-68
2022/03/06 07:04:50;;;;;;;19.73;13.67;;;0.80;99.90;;;;;;5055161;28;20408;-67
2022/03/06 07:07:16;;;;;;;20.10;14.83;;;0.90;99.90;;;;;;5055353;28;20246;-67
2022/03/06 07:09:41;;;;;;;18.93;14.90;;;1.10;99.90;;;;;;5054889;28;20428;-68
2022/03/06 07:12:08;;;;;;;20.43;14.80;;;1.20;99.90;;;;;;5054778;28;20180;-68
2022/03/06 07:14:34;;;;;;;21.20;15.07;;;1.30;99.90;;;;;;5054877;28;20523;-68
2022/03/06 07:16:59;;;;;;;22.03;14.90;;;1.20;99.90;;;;;;5054773;28;20416;-68
2022/03/06 07:19:25;;;;;;;21.93;15.80;;;1.40;99.90;;;;;;5054694;28;20300;-68
2022/03/06 07:21:51;;;;;;;19.40;14.90;;;1.50;99.90;;;;;;5054383;28;20182;-68
2022/03/06 07:24:17;;;;;;;15.67;13.67;;;1.50;99.90;;;;;;5054572;28;20196;-67
2022/03/06 07:26:43;;;;;;;19.27;13.70;;;1.60;99.90;;;;;;5054430;28;20228;-68
2022/03/06 07:29:08;;;;;;;18.43;14.63;;;1.60;99.90;;;;;;5054136;28;20427;-68
2022/03/06 07:31:34;;;;;;;19.30;14.70;;;1.60;99.90;;;;;;5054467;28;20177;-68
2022/03/06 07:34:00;;;;;;;21.27;16.10;;;1.70;99.90;;;;;;5054565;28;20658;-69
2022/03/06 07:36:26;;;;;;;23.93;16.60;;;1.80;99.90;;;;;;5054667;28;20203;-68
2022/03/06 07:38:52;;;;;;;19.97;15.23;;;1.90;99.90;;;;;;5054214;28;20437;-68
2022/03/06 07:41:18;;;;;;;21.63;15.23;;;2.10;99.90;;;;;;5054260;28;20409;-68
2022/03/06 07:43:44;;;;;;;21.10;15.57;;;2.20;99.90;;;;;;5053498;28;20194;-68
2022/03/06 07:46:10;;;;;;;22.57;16.30;;;2.30;99.90;;;;;;5054000;28;20497;-68
2022/03/06 07:48:35;;;;;;;23.33;16.17;;;2.50;99.90;;;;;;5054176;28;20449;-68
2022/03/06 07:51:02;;;;;;;20.80;15.87;;;2.70;99.90;;;;;;5054172;28;20171;-68
2022/03/06 07:53:27;;;;;;;22.43;16.00;;;2.80;99.90;;;;;;5054156;28;20253;-68
2022/03/06 07:55:53;;;;;;;20.33;15.60;;;2.90;99.90;;;;;;5054378;28;20924;-68
2022/03/06 07:58:19;;;;;;;20.90;16.57;;;3.00;99.90;;;;;;5054030;28;20210;-68
2022/03/06 08:00:45;;;;;;;24.03;16.40;;;3.10;99.90;;;;;;5051799;28;20190;-68
2022/03/06 08:03:11;;;;;;;23.80;17.63;;;3.20;99.90;;;;;;5055076;28;20445;-68
2022/03/06 08:05:36;;;;;;;23.87;16.50;;;3.20;99.90;;;;;;5053892;28;20190;-68
2022/03/06 08:08:02;;;;;;;60.07;35.83;;;3.20;99.90;;;;;;5052529;28;20656;-68
2022/03/06 08:10:28;;;;;;;24.43;17.10;;;3.30;99.90;;;;;;5053958;28;20202;-68
2022/03/06 08:12:53;;;;;;;31.57;22.77;;;3.40;99.90;;;;;;5053840;28;20424;-68
2022/03/06 08:15:19;;;;;;;23.53;16.83;;;3.50;99.90;;;;;;5053506;28;20627;-69
2022/03/06 08:17:45;;;;;;;20.60;15.23;;;3.60;99.90;;;;;;5053741;28;20166;-69
2022/03/06 08:20:11;;;;;;;20.80;15.40;;;3.40;99.90;;;;;;5053877;28;20175;-67
2022/03/06 08:22:37;;;;;;;20.33;15.77;;;3.30;99.90;;;;;;5053925;28;20539;-69
2022/03/06 08:25:03;;;;;;;16.60;14.43;;;3.00;99.90;;;;;;5056471;28;20416;-69
2022/03/06 08:27:30;;;;;;;23.17;16.50;;;3.00;99.90;;;;;;5054156;28;20158;-69
2022/03/06 08:29:55;;;;;;;20.07;14.27;;;3.00;99.90;;;;;;5054515;28;20886;-69
2022/03/06 08:32:21;;;;;;;17.27;14.10;;;3.00;99.90;;;;;;5057838;28;20412;-68
2022/03/06 08:34:51;;;;;;;21.23;15.70;;;3.10;99.90;;;;;;5053556;28;20202;-68
2022/03/06 08:37:17;;;;;;;18.07;14.43;;;3.00;99.90;;;;;;5049248;28;20697;-68
2022/03/06 08:39:42;;;;;;;21.27;16.07;;;3.00;99.90;;;;;;5053252;28;20436;-69
2022/03/06 08:42:08;;;;;;;20.63;16.43;;;3.10;99.90;;;;;;5053339;28;20456;-68
2022/03/06 08:44:34;;;;;;;21.17;15.60;;;3.10;99.90;;;;;;5052898;28;20177;-69
2022/03/06 08:47:00;;;;;;;19.57;15.80;;;3.30;99.90;;;;;;5051520;28;20639;-68
2022/03/06 08:49:25;;;;;;;19.87;15.37;;;3.60;99.90;;;;;;5042668;28;20585;-68
2022/03/06 08:51:51;;;;;;;20.93;15.30;;;3.80;99.90;;;;;;5048420;28;20175;-68
2022/03/06 08:54:17;;;;;;;19.30;17.00;;;3.90;99.90;;;;;;5053262;28;20155;-68
2022/03/06 08:56:43;;;;;;;19.13;15.63;;;3.90;99.90;;;;;;5053257;28;20166;-68
2022/03/06 08:59:09;;;;;;;20.83;16.73;;;4.00;99.90;;;;;;5051292;28;20206;-69
2022/03/06 09:01:34;;;;;;;21.90;15.80;;;4.10;99.90;;;;;;5052819;28;20401;-68
2022/03/06 09:04:00;;;;;;;16.77;13.97;;;4.00;99.90;;;;;;5052882;28;20233;-68
2022/03/06 09:06:25;;;;;;;17.23;14.90;;;4.00;99.90;;;;;;5053170;28;20181;-68
2022/03/06 09:08:51;;;;;;;17.33;14.67;;;3.90;99.90;;;;;;5053308;28;20525;-68
2022/03/06 09:11:22;;;;;;;20.47;15.37;;;4.10;99.90;;;;;;5056054;28;20249;-68
2022/03/06 09:13:48;;;;;;;18.47;14.30;;;4.40;99.90;;;;;;5057305;28;20546;-68
2022/03/06 09:16:14;;;;;;;20.43;15.20;;;4.40;99.90;;;;;;5056714;28;20405;-68
2022/03/06 09:18:39;;;;;;;18.27;13.90;;;4.40;99.80;;;;;;5057076;28;20675;-68
2022/03/06 09:21:05;;;;;;;17.47;15.27;;;4.40;99.70;;;;;;5057279;28;20655;-68
2022/03/06 09:23:31;;;;;;;20.40;15.30;;;4.50;99.90;;;;;;5056843;28;20228;-68
2022/03/06 09:25:56;;;;;;;20.43;14.20;;;4.60;99.90;;;;;;5056729;28;20167;-68
2022/03/06 09:28:22;;;;;;;18.87;14.10;;;4.50;99.40;;;;;;5056936;28;20244;-67
2022/03/06 09:30:47;;;;;;;17.40;13.60;;;4.60;99.50;;;;;;5056881;28;20189;-67
2022/03/06 09:33:14;;;;;;;16.80;13.40;;;4.50;99.10;;;;;;5057085;28;20177;-68
2022/03/06 09:35:40;;;;;;;18.17;14.40;;;4.40;99.20;;;;;;5056725;28;20170;-67
2022/03/06 09:38:05;;;;;;;15.27;12.60;;;4.40;99.20;;;;;;5056741;28;20424;-68
2022/03/06 09:40:31;;;;;;;20.40;13.93;;;4.50;99.00;;;;;;5056615;28;20337;-68
2022/03/06 09:42:57;;;;;;;15.27;13.20;;;4.60;98.80;;;;;;5056591;28;20195;-68
2022/03/06 09:45:24;;;;;;;16.40;13.90;;;4.70;98.80;;;;;;5055413;28;20651;-68
2022/03/06 09:47:49;;;;;;;16.13;12.47;;;4.60;98.90;;;;;;5056228;28;20194;-67
2022/03/06 09:50:16;;;;;;;16.60;14.50;;;4.40;99.10;;;;;;5055576;28;20428;-68
2022/03/06 09:52:42;;;;;;;15.90;13.77;;;4.40;99.10;;;;;;5056008;28;20477;-68
2022/03/06 09:55:09;;;;;;;17.83;14.13;;;4.60;99.10;;;;;;5054897;28;20540;-68
2022/03/06 09:57:35;;;;;;;19.80;14.43;;;4.90;98.60;;;;;;5056271;28;20409;-68
2022/03/06 10:00:00;;;;;;;20.77;14.17;;;5.00;97.80;;;;;;5055996;28;20396;-68
2022/03/06 10:02:26;;;;;;;17.37;13.70;;;5.20;97.30;;;;;;5056096;28;20682;-68
2022/03/06 10:04:52;;;;;;;18.03;13.70;;;5.20;96.00;;;;;;5056220;28;20174;-67
2022/03/06 10:07:21;;;;;;;14.77;13.17;;;5.40;95.70;;;;;;5056278;28;20171;-67
2022/03/06 10:09:55;;;;;;;20.57;15.13;;;5.40;95.40;;;;;;5055729;28;20235;-67
2022/03/06 10:12:22;;;;;;;18.93;13.70;;;5.50;95.40;;;;;;5071442;22;20497;-69
2022/03/06 10:14:50;;;;;;;16.67;13.23;;;5.60;94.50;;;;;;5027476;28;20460;-68
2022/03/06 10:17:17;;;;;;;17.30;13.20;;;5.50;94.60;;;;;;5035601;28;21004;-68
2022/03/06 10:19:50;;;;;;;24.30;17.17;;;5.80;94.50;;;;;;5035775;28;20536;-67
2022/03/06 10:22:17;;;;;;;20.87;16.40;;;6.20;93.70;;;;;;5035142;28;20453;-67
2022/03/06 10:24:51;;;;;;;16.87;14.30;;;6.20;92.90;;;;;;5035637;28;20409;-67
2022/03/06 10:27:53;;;;;;;16.67;13.37;;;6.20;92.90;;;;;;5035838;28;20390;-67
2022/03/06 10:30:30;;;;;;;17.20;13.23;;;5.90;91.90;;;;;;5050783;22;20859;-67
2022/03/06 10:32:58;;;;;;;18.97;13.93;;;5.80;91.90;;;;;;5015262;28;20789;-68
2022/03/06 10:35:30;;;;;;;19.10;13.37;;;5.80;91.80;;;;;;5017601;28;20398;-67
2022/03/06 10:37:55;;;;;;;17.00;13.30;;;5.90;91.60;;;;;;5035688;28;20382;-67
2022/03/06 10:40:33;;;;;;;18.60;13.60;;;5.90;91.20;;;;;;5021029;28;20415;-67
2022/03/06 10:42:59;;;;;;;16.57;13.53;;;5.50;90.20;;;;;;4998441;28;20229;-67
2022/03/06 10:45:24;;;;;;;17.37;13.03;;;5.70;89.90;;;;;;5001181;28;20424;-68
2022/03/06 10:47:50;;;;;;;15.40;11.90;;;5.70;88.00;;;;;;5001596;28;20212;-68
2022/03/06 10:50:25;;;;;;;15.00;13.30;;;5.80;89.80;;;;;;4995687;28;20192;-68
2022/03/06 10:52:53;;;;;;;17.70;13.10;;;6.10;90.30;;;;;;4995772;28;20205;-68
2022/03/06 10:55:34;;;;;;;15.40;12.60;;;6.20;90.10;;;;;;4995900;28;20440;-68
2022/03/06 10:58:02;;;;;;;18.73;14.07;;;6.40;90.40;;;;;;4995909;28;20807;-68
2022/03/06 11:00:28;;;;;;;18.50;14.10;;;6.40;89.40;;;;;;4995419;28;20423;-68
2022/03/06 11:02:55;;;;;;;17.00;13.47;;;6.40;89.20;;;;;;4995627;28;20539;-68
2022/03/06 11:05:22;;;;;;;19.13;14.20;;;6.20;89.70;;;;;;4995823;28;20191;-68
2022/03/06 11:07:48;;;;;;;14.60;12.30;;;6.90;90.00;;;;;;4995526;28;20813;-68
2022/03/06 11:10:15;;;;;;;15.90;12.20;;;6.60;87.20;;;;;;4995203;28;20436;-68
2022/03/06 11:12:41;;;;;;;14.80;12.37;;;5.90;87.70;;;;;;4995548;28;20498;-68
2022/03/06 11:15:08;;;;;;;14.87;12.50;;;5.80;87.80;;;;;;4995193;28;20423;-68
2022/03/06 11:17:35;;;;;;;16.00;11.90;;;5.90;88.00;;;;;;4978145;28;20444;-68
2022/03/06 11:20:01;;;;;;;13.53;12.10;;;5.90;88.00;;;;;;4995344;28;20869;-68
2022/03/06 11:22:52;;;;;;;18.33;12.80;;;5.80;88.10;;;;;;4995282;28;20543;-68
2022/03/06 11:25:23;;;;;;;12.10;10.73;;;6.00;87.50;;;;;;4978281;28;20170;-68
2022/03/06 11:28:21;;;;;;;14.90;11.40;;;6.10;86.60;;;;;;4995233;28;20388;-68
2022/03/06 11:30:47;;;;;;;17.57;12.20;;;5.90;85.90;;;;;;4994592;28;20442;-68
2022/03/06 11:33:13;;;;;;;16.17;12.50;;;6.20;85.80;;;;;;4995743;28;20412;-68
2022/03/06 11:35:43;;;;;;;15.23;11.53;;;6.40;85.50;;;;;;4993846;28;20176;-68
2022/03/06 11:38:12;;;;;;;14.77;12.17;;;6.80;84.80;;;;;;4995333;28;20406;-68
2022/03/06 11:40:44;;;;;;;13.30;11.27;;;8.10;81.20;;;;;;4994982;28;20513;-68
2022/03/06 11:43:31;;;;;;;16.13;13.53;;;9.00;77.80;;;;;;4994800;28;20529;-69
2022/03/06 11:46:09;;;;;;;17.23;13.47;;;8.70;76.00;;;;;;4994343;28;20481;-68
2022/03/06 11:48:34;;;;;;;15.93;13.37;;;8.60;76.50;;;;;;4994904;28;20382;-68
2022/03/06 11:51:18;;;;;;;14.00;11.00;;;8.50;75.50;;;;;;4995121;28;20514;-68
2022/03/06 11:53:55;;;;;;;13.63;11.73;;;10.70;72.20;;;;;;4995022;28;20254;-68
2022/03/06 11:56:39;;;;;;;14.43;12.10;;;11.90;64.20;;;;;;4995310;28;20810;-69
2022/03/06 11:59:17;;;;;;;15.23;12.57;;;12.30;62.80;;;;;;4995287;28;20431;-67
2022/03/06 12:01:47;;;;;;;13.40;11.37;;;13.40;57.20;;;;;;4994903;28;20400;-68
2022/03/06 12:04:19;;;;;;;12.90;10.97;;;12.00;55.50;;;;;;4994831;28;20466;-69
2022/03/06 12:06:47;;;;;;;14.40;12.80;;;12.50;58.00;;;;;;4995083;28;20426;-69
2022/03/06 12:09:14;;;;;;;12.00;10.80;;;12.10;55.20;;;;;;4994561;28;20426;-68
2022/03/06 12:11:40;;;;;;;13.10;10.50;;;11.60;55.50;;;;;;4994380;28;20952;-68
2022/03/06 12:14:21;;;;;;;12.90;11.57;;;11.80;55.70;;;;;;4994319;28;20404;-69
2022/03/06 12:17:06;;;;;;;12.33;10.40;;;12.20;54.50;;;;;;4994643;28;20398;-69
2022/03/06 12:19:45;;;;;;;12.13;10.93;;;13.70;53.60;;;;;;4994188;28;20485;-68
2022/03/06 12:22:15;;;;;;;12.43;11.13;;;14.50;52.10;;;;;;4994327;28;20385;-68
2022/03/06 12:24:43;;;;;;;12.70;11.33;;;14.10;51.40;;;;;;4976734;28;20486;-68
2022/03/06 12:27:12;;;;;;;12.43;11.10;;;13.60;51.90;;;;;;4994262;28;20407;-68
2022/03/06 12:29:47;;;;;;;13.23;11.33;;;13.50;51.50;;;;;;4993849;28;20939;-68
2022/03/06 12:32:25;;;;;;;12.40;11.10;;;12.70;52.40;;;;;;4994141;28;20824;-67
2022/03/06 12:35:04;;;;;;;11.67;10.53;;;11.00;53.40;;;;;;4994424;28;20400;-68